Terminal Aerodrome Forecast
Issued by NWS Mt. Holly, NJ

Home | Current Version | Previous Version | Text Only | Print | Product List | Glossary On
Versions: 1 2 3 4 5 6 7 8 9 10 11 12 13 14 15
000
FTUS41 KPHI 201900 AAA
TAFTTN
TAF AMD
KTTN 201943Z 2020/2118 10010G16KT P6SM FEW250
     FM202100 12008KT P6SM FEW250
     FM210200 09004KT P6SM SKC
     FM211400 15005KT P6SM SKC=

USA.gov is the U.S. government's official web portal to all federal, state and local government web resources and services.